Hauptseite
METAR-TAF:

METAR-TAF

Flughäfen :

Flughafen Groningen

Groningen, Niederlande

Breite: 53-08N, Länge: 006-35E, Höhe: 4 m

Beobachtung

Neuester Wetterbericht von vor 16 Minuten, um 04:55 UTC
Wind 7 kt aus Ost
Temperatur 12°C
Luftfeuchtigkeit 67%
Luftdruck 1020 hPa
Sichtweite 10 km oder mehr

METAR: EHGG 210455Z AUTO 08007KT 9999 NCD 12/06 Q1020 NOSIG

Zeit: 07:11 (05:11 UTC)

Prognose

Neuester Wetterbericht von vor 6 Stunden und 13 Minuten, um 22:58 UTC
Gültige Prognose vom 21 um 00 UTC bis 22 um 06 UTC
Wind 8 kt aus Ost/Nordost
Sichtweite 10 km oder mehr
keine Wolken unter 1500 m und keine Kumulonimbus oder Gewitterwolken
Übergehend zu
vom 21 um 08 UTC bis 21 um 11 UTC
Wind 14 kt aus Ost, Böen bis zu 24 kt
Übergehend zu
vom 21 um 16 UTC bis 21 um 19 UTC
Wind 6 kt aus Ost/Nordost

TAF: EHGG 202258Z 2100/2206 07008KT CAVOK BECMG 2108/2111 10014G24KT BECMG 2116/2119 07006KT

Wetterbeobachtungen und Prognosen von mehr als 4000 Flughäfen (METAR und TAF Bericht).

Die verfügbaren Stationen werden durch gelbe und rote Markierungen auf der Karte dargestellt.

Führen Sie die Maus auf sie, um den Namen der Station zu sehen.

Darauf klicken, um die Beobachtung von Wetterbeobachtungen und Prognosen zu sehen.

Um die Karte zu ändern : klicken Sie auf den grünen Tasten mit einem schwarzen Kreuz Zum Vergrößern, auf den grünen Button mit einem Gedankenstrich zu verkleinern, oder auf die grünen Pfeile für benachbarte Karten.


METAR-TAF: